createdAt,value
2023-05-01T00:01:09.708Z,13.43
2023-05-01T00:06:34.509Z,13.39
2023-05-01T00:11:27.708Z,13.36
2023-05-01T00:16:26.830Z,13.33
2023-05-01T00:21:26.583Z,13.31
2023-05-01T00:26:26.563Z,13.29
2023-05-01T00:31:26.492Z,13.26
2023-05-01T00:36:26.418Z,13.22
2023-05-01T00:41:26.380Z,13.17
2023-05-01T00:46:26.377Z,13.13
2023-05-01T00:51:26.253Z,13.08
2023-05-01T00:56:26.205Z,13.04
2023-05-01T01:01:26.186Z,13.01
2023-05-01T01:06:26.074Z,12.98
2023-05-01T01:11:25.964Z,12.95
2023-05-01T01:16:25.951Z,12.90
2023-05-01T01:21:25.810Z,12.83
2023-05-01T01:26:25.787Z,12.75
2023-05-01T01:31:25.754Z,12.68
2023-05-01T01:36:25.632Z,12.64
2023-05-01T01:41:25.565Z,12.62
2023-05-01T01:46:25.617Z,12.62
2023-05-01T01:51:25.435Z,12.63
2023-05-01T01:56:25.365Z,12.65
2023-05-01T02:01:25.422Z,12.67
2023-05-01T02:06:25.285Z,12.69
2023-05-01T02:11:25.164Z,12.70
2023-05-01T02:16:25.116Z,12.68
2023-05-01T02:21:25.066Z,12.64
2023-05-01T02:26:24.950Z,12.59
2023-05-01T02:31:24.914Z,12.52
2023-05-01T02:36:24.801Z,12.46
2023-05-01T02:41:24.741Z,12.42
2023-05-01T02:46:24.727Z,12.38
2023-05-01T02:51:24.619Z,12.36
2023-05-01T02:56:24.514Z,12.34
2023-05-01T03:01:24.627Z,12.32
2023-05-01T03:06:24.498Z,12.32
2023-05-01T03:11:24.374Z,12.31
2023-05-01T03:16:24.321Z,12.28
2023-05-01T03:21:24.271Z,12.23
2023-05-01T03:26:24.170Z,12.17
2023-05-01T03:31:24.132Z,12.10
2023-05-01T03:36:24.014Z,12.02
2023-05-01T03:41:23.945Z,11.93
2023-05-01T03:46:23.869Z,11.86
2023-05-01T03:51:23.799Z,11.79
2023-05-01T03:56:23.727Z,11.74
2023-05-01T04:01:23.710Z,11.69
2023-05-01T04:06:23.629Z,11.67
2023-05-01T04:11:23.538Z,11.66
2023-05-01T04:16:31.052Z,11.67
2023-05-01T04:21:23.411Z,11.68
2023-05-01T04:26:24.059Z,11.70
2023-05-01T04:31:23.322Z,11.74
2023-05-01T04:36:23.214Z,11.79
2023-05-01T04:41:23.184Z,11.85
2023-05-01T04:46:23.131Z,11.92
2023-05-01T04:51:23.014Z,12.00
2023-05-01T04:56:22.947Z,12.08
2023-05-01T05:01:22.941Z,12.16
2023-05-01T05:06:22.946Z,12.25
2023-05-01T05:11:22.721Z,12.35
2023-05-01T05:16:22.943Z,12.44
2023-05-01T05:21:22.625Z,12.55
2023-05-01T05:26:22.546Z,12.67
2023-05-01T05:31:22.488Z,12.80
2023-05-01T05:36:23.310Z,12.94
2023-05-01T05:41:22.372Z,13.12
2023-05-01T05:46:22.332Z,13.30
2023-05-01T05:51:22.205Z,13.49
2023-05-01T05:56:22.185Z,13.67
2023-05-01T06:01:22.194Z,13.86
2023-05-01T06:06:22.105Z,14.08
2023-05-01T06:11:21.944Z,14.35
2023-05-01T06:16:21.977Z,14.62
2023-05-01T06:21:21.864Z,14.88
2023-05-01T06:26:21.782Z,15.13
2023-05-01T06:31:21.783Z,15.39
2023-05-01T06:36:21.640Z,15.75
2023-05-01T06:41:21.551Z,16.21
2023-05-01T06:46:21.484Z,16.75
2023-05-01T06:51:21.464Z,17.24
2023-05-01T06:56:21.383Z,17.72
2023-05-01T07:01:21.390Z,18.16
2023-05-01T07:06:21.258Z,18.64
2023-05-01T07:11:21.164Z,19.39
2023-05-01T07:16:21.175Z,20.24
2023-05-01T07:21:21.025Z,21.29
2023-05-01T07:26:21.090Z,22.34
2023-05-01T07:31:20.990Z,23.13
2023-05-01T07:36:20.863Z,23.55
2023-05-01T07:41:20.763Z,23.60
2023-05-01T07:46:20.721Z,23.37
2023-05-01T07:51:20.685Z,22.98
2023-05-01T07:56:20.578Z,22.76
2023-05-01T08:01:20.505Z,22.78
2023-05-01T08:06:20.446Z,22.80
2023-05-01T08:11:20.375Z,22.76
2023-05-01T08:16:21.866Z,22.76
2023-05-01T08:21:20.232Z,22.94
2023-05-01T08:26:22.344Z,23.20
2023-05-01T08:31:20.433Z,23.46
2023-05-01T08:36:21.334Z,23.87
2023-05-01T08:41:19.968Z,24.58
2023-05-01T08:46:20.504Z,25.25
2023-05-01T08:51:21.166Z,25.74
2023-05-01T08:56:19.868Z,26.24
2023-05-01T09:01:19.759Z,26.97
2023-05-01T09:06:19.966Z,27.64
2023-05-01T09:11:19.582Z,27.76
2023-05-01T09:16:19.594Z,27.48
2023-05-01T09:21:19.439Z,27.02
2023-05-01T09:26:19.377Z,26.76
2023-05-01T09:31:19.706Z,26.77
2023-05-01T09:36:19.374Z,26.84
2023-05-01T09:41:19.150Z,26.90
2023-05-01T09:46:19.283Z,27.16
2023-05-01T09:51:19.033Z,27.53
2023-05-01T09:56:18.969Z,27.51
2023-05-01T10:01:18.908Z,27.20
2023-05-01T10:06:18.940Z,26.92
2023-05-01T10:11:18.765Z,26.56
2023-05-01T10:16:18.757Z,26.20
2023-05-01T10:21:18.632Z,26.46
2023-05-01T10:26:18.607Z,27.27
2023-05-01T10:31:18.581Z,28.22
2023-05-01T10:36:18.470Z,29.54
2023-05-01T10:41:18.394Z,30.38
2023-05-01T10:46:18.330Z,30.69
2023-05-01T10:51:18.214Z,31.02
2023-05-01T10:56:18.204Z,31.52
2023-05-01T11:01:18.195Z,32.34
2023-05-01T11:06:18.190Z,33.36
2023-05-01T11:11:18.007Z,34.02
2023-05-01T11:16:17.971Z,33.93
2023-05-01T11:21:17.888Z,33.23
2023-05-01T11:26:17.801Z,32.64
2023-05-01T11:31:17.810Z,32.84
2023-05-01T11:36:17.716Z,33.70
2023-05-01T11:41:18.758Z,34.69
2023-05-01T11:46:17.597Z,35.47
2023-05-01T11:51:17.487Z,35.91
2023-05-01T11:56:26.005Z,35.96
2023-05-01T12:01:18.561Z,35.72
2023-05-01T12:06:17.307Z,35.48
2023-05-01T12:11:17.952Z,35.35
2023-05-01T12:16:17.246Z,35.17
2023-05-01T12:21:17.279Z,34.61
2023-05-01T12:26:16.984Z,33.54
2023-05-01T12:31:16.932Z,32.43
2023-05-01T12:36:16.876Z,31.25
2023-05-01T12:41:16.822Z,29.91
2023-05-01T12:46:16.820Z,28.61
2023-05-01T12:51:16.671Z,27.43
2023-05-01T12:56:16.598Z,26.42
2023-05-01T13:01:16.563Z,25.56
2023-05-01T13:06:16.489Z,24.85
2023-05-01T13:11:16.845Z,24.34
2023-05-01T13:16:16.449Z,24.01
2023-05-01T13:21:16.443Z,23.74
2023-05-01T13:26:16.322Z,23.52
2023-05-01T13:31:16.175Z,23.34
2023-05-01T13:36:25.258Z,23.16
2023-05-01T13:41:17.040Z,22.95
2023-05-01T13:46:15.993Z,22.76
2023-05-01T13:51:16.014Z,22.63
2023-05-01T13:56:15.838Z,22.60
2023-05-01T14:01:16.026Z,22.66
2023-05-01T14:06:15.767Z,22.75
2023-05-01T14:11:15.635Z,22.82
2023-05-01T14:16:15.696Z,22.87
2023-05-01T14:21:15.466Z,22.93
2023-05-01T14:26:15.453Z,22.99
2023-05-01T14:31:15.499Z,23.03
2023-05-01T14:36:15.407Z,22.99
2023-05-01T14:41:15.230Z,22.86
2023-05-01T14:46:15.181Z,22.64
2023-05-01T14:51:15.185Z,22.34
2023-05-01T14:56:15.062Z,22.05
2023-05-01T15:01:15.023Z,21.81
2023-05-01T15:06:14.975Z,21.60
2023-05-01T15:11:14.780Z,21.41
2023-05-01T15:16:14.789Z,21.24
2023-05-01T15:21:14.717Z,21.07
2023-05-01T15:26:14.622Z,20.90
2023-05-01T15:31:14.579Z,20.72
2023-05-01T15:36:14.696Z,20.53
2023-05-01T15:41:15.100Z,20.35
2023-05-01T15:46:14.487Z,20.22
2023-05-01T15:51:14.328Z,20.17
2023-05-01T15:56:14.258Z,20.13
2023-05-01T16:01:14.158Z,20.05
2023-05-01T16:06:14.125Z,19.97
2023-05-01T16:11:14.016Z,19.89
2023-05-01T16:16:14.071Z,19.76
2023-05-01T16:21:14.266Z,19.56
2023-05-01T16:26:13.892Z,19.30
2023-05-01T16:31:26.186Z,19.03
2023-05-01T16:36:14.688Z,18.76
2023-05-01T16:41:13.627Z,18.50
2023-05-01T16:46:13.592Z,18.23
2023-05-01T16:51:13.496Z,17.97
2023-05-01T16:56:13.417Z,17.70
2023-05-01T17:01:13.411Z,17.45
2023-05-01T17:06:14.345Z,17.25
2023-05-01T17:11:13.251Z,17.10
2023-05-01T17:16:13.330Z,17.02
2023-05-01T17:21:13.092Z,16.98
2023-05-01T17:26:13.170Z,16.95
2023-05-01T17:31:13.729Z,16.90
2023-05-01T17:36:12.930Z,16.84
2023-05-01T17:41:12.832Z,16.79
2023-05-01T17:46:12.866Z,16.75
2023-05-01T17:51:12.737Z,16.73
2023-05-01T17:56:12.650Z,16.69
2023-05-01T18:01:12.780Z,16.60
2023-05-01T18:06:12.566Z,16.46
2023-05-01T18:11:12.476Z,16.26
2023-05-01T18:16:12.476Z,16.03
2023-05-01T18:21:12.298Z,15.80
2023-05-01T18:26:12.238Z,15.58
2023-05-01T18:31:12.209Z,15.38
2023-05-01T18:36:12.099Z,15.19
2023-05-01T18:41:12.022Z,14.99
2023-05-01T18:46:12.044Z,14.80
2023-05-01T18:51:11.963Z,14.62
2023-05-01T18:56:12.000Z,14.44
2023-05-01T19:01:11.790Z,14.26
2023-05-01T19:06:11.715Z,14.09
2023-05-01T19:11:11.633Z,13.93
2023-05-01T19:16:11.653Z,13.79
2023-05-01T19:21:11.531Z,13.66
2023-05-01T19:26:11.483Z,13.55
2023-05-01T19:31:12.542Z,13.47
2023-05-01T19:36:11.283Z,13.41
2023-05-01T19:41:11.240Z,13.37
2023-05-01T19:46:11.240Z,13.35
2023-05-01T19:51:11.102Z,13.31
2023-05-01T19:56:11.096Z,13.23
2023-05-01T20:01:11.023Z,13.12
2023-05-01T20:06:10.931Z,12.99
2023-05-01T20:11:10.900Z,12.86
2023-05-01T20:16:10.849Z,12.75
2023-05-01T20:21:10.739Z,12.68
2023-05-01T20:26:10.761Z,12.65
2023-05-01T20:31:10.597Z,12.64
2023-05-01T20:36:10.574Z,12.63
2023-05-01T20:41:10.435Z,12.63
2023-05-01T20:46:10.487Z,12.61
2023-05-01T20:51:10.318Z,12.57
2023-05-01T20:56:10.354Z,12.53
2023-05-01T21:01:10.323Z,12.49
2023-05-01T21:06:10.183Z,12.45
2023-05-01T21:11:10.093Z,12.43
2023-05-01T21:16:10.022Z,12.40
2023-05-01T21:21:09.919Z,12.36
2023-05-01T21:26:09.864Z,12.29
2023-05-01T21:31:09.788Z,12.22
2023-05-01T21:36:09.735Z,12.15
2023-05-01T21:41:09.676Z,12.08
2023-05-01T21:46:09.572Z,12.01
2023-05-01T21:51:09.492Z,11.94
2023-05-01T21:56:09.458Z,11.88
2023-05-01T22:01:09.737Z,11.80
2023-05-01T22:06:09.340Z,11.71
2023-05-01T22:11:09.246Z,11.61
2023-05-01T22:16:09.189Z,11.51
2023-05-01T22:21:09.114Z,11.43
2023-05-01T22:26:09.055Z,11.40
2023-05-01T22:31:08.987Z,11.42
2023-05-01T22:36:08.934Z,11.49
2023-05-01T22:41:08.876Z,11.58
2023-05-01T22:46:08.904Z,11.65
2023-05-01T22:51:08.763Z,11.68
2023-05-01T22:56:08.641Z,11.67
2023-05-01T23:01:08.658Z,11.63
2023-05-01T23:06:08.574Z,11.57
2023-05-01T23:11:08.417Z,11.51
2023-05-01T23:16:08.497Z,11.43
2023-05-01T23:21:08.366Z,11.34
2023-05-01T23:26:08.219Z,11.25
2023-05-01T23:31:08.233Z,11.17
2023-05-01T23:36:08.169Z,11.08
2023-05-01T23:41:08.036Z,10.99
2023-05-01T23:46:07.976Z,10.90
2023-05-01T23:51:07.975Z,10.82
2023-05-01T23:56:07.862Z,10.75
